sensor_id;sensor_type;location;lat;lon;timestamp;temperature;humidity
47576;DHT22;33304;52.456;13.328;2023-07-08T00:02:11;19.80;10.70
47576;DHT22;33304;52.456;13.328;2023-07-08T00:04:39;19.60;10.90
47576;DHT22;33304;52.456;13.328;2023-07-08T00:07:11;19.60;11.30
47576;DHT22;33304;52.456;13.328;2023-07-08T00:09:39;19.50;11.60
47576;DHT22;33304;52.456;13.328;2023-07-08T00:12:10;19.50;11.70
47576;DHT22;33304;52.456;13.328;2023-07-08T00:14:37;19.50;12.70
47576;DHT22;33304;52.456;13.328;2023-07-08T00:17:10;19.50;12.40
47576;DHT22;33304;52.456;13.328;2023-07-08T00:19:37;19.60;12.50
47576;DHT22;33304;52.456;13.328;2023-07-08T00:22:11;19.60;12.00
47576;DHT22;33304;52.456;13.328;2023-07-08T00:24:39;19.50;12.70
47576;DHT22;33304;52.456;13.328;2023-07-08T00:27:09;19.50;12.40
47576;DHT22;33304;52.456;13.328;2023-07-08T00:29:37;19.50;13.40
47576;DHT22;33304;52.456;13.328;2023-07-08T00:32:09;19.40;13.50
47576;DHT22;33304;52.456;13.328;2023-07-08T00:34:36;19.30;13.40
47576;DHT22;33304;52.456;13.328;2023-07-08T00:37:04;19.20;13.30
47576;DHT22;33304;52.456;13.328;2023-07-08T00:39:32;19.30;13.00
47576;DHT22;33304;52.456;13.328;2023-07-08T00:42:00;19.30;12.10
47576;DHT22;33304;52.456;13.328;2023-07-08T00:44:28;19.30;13.00
47576;DHT22;33304;52.456;13.328;2023-07-08T00:47:01;19.40;13.00
47576;DHT22;33304;52.456;13.328;2023-07-08T00:49:36;19.30;13.20
47576;DHT22;33304;52.456;13.328;2023-07-08T00:52:17;19.30;12.80
47576;DHT22;33304;52.456;13.328;2023-07-08T00:54:49;19.30;13.30
47576;DHT22;33304;52.456;13.328;2023-07-08T00:57:16;19.20;13.50
47576;DHT22;33304;52.456;13.328;2023-07-08T00:59:47;19.30;13.50
47576;DHT22;33304;52.456;13.328;2023-07-08T01:02:15;19.20;14.30
47576;DHT22;33304;52.456;13.328;2023-07-08T01:04:49;19.20;13.40
47576;DHT22;33304;52.456;13.328;2023-07-08T01:07:18;19.20;13.60
47576;DHT22;33304;52.456;13.328;2023-07-08T01:09:51;19.20;13.70
47576;DHT22;33304;52.456;13.328;2023-07-08T01:12:22;19.10;13.80
47576;DHT22;33304;52.456;13.328;2023-07-08T01:14:52;19.10;15.20
47576;DHT22;33304;52.456;13.328;2023-07-08T01:17:21;19.00;13.90
47576;DHT22;33304;52.456;13.328;2023-07-08T01:19:48;18.90;14.60
47576;DHT22;33304;52.456;13.328;2023-07-08T01:22:18;18.80;14.40
47576;DHT22;33304;52.456;13.328;2023-07-08T01:24:46;18.80;14.50
47576;DHT22;33304;52.456;13.328;2023-07-08T01:27:16;19.10;14.00
47576;DHT22;33304;52.456;13.328;2023-07-08T01:29:44;19.00;14.00
47576;DHT22;33304;52.456;13.328;2023-07-08T01:32:13;19.00;14.50
47576;DHT22;33304;52.456;13.328;2023-07-08T01:34:44;18.90;14.10
47576;DHT22;33304;52.456;13.328;2023-07-08T01:37:29;18.90;14.40
47576;DHT22;33304;52.456;13.328;2023-07-08T01:40:12;18.90;13.70
47576;DHT22;33304;52.456;13.328;2023-07-08T01:42:39;18.80;14.00
47576;DHT22;33304;52.456;13.328;2023-07-08T01:45:11;18.90;14.40
47576;DHT22;33304;52.456;13.328;2023-07-08T01:47:39;18.90;15.00
47576;DHT22;33304;52.456;13.328;2023-07-08T01:50:07;18.80;14.90
47576;DHT22;33304;52.456;13.328;2023-07-08T01:52:37;18.80;14.50
47576;DHT22;33304;52.456;13.328;2023-07-08T01:55:04;18.80;14.90
47576;DHT22;33304;52.456;13.328;2023-07-08T01:57:32;18.70;15.30
47576;DHT22;33304;52.456;13.328;2023-07-08T01:59:59;18.70;15.30
47576;DHT22;33304;52.456;13.328;2023-07-08T02:02:26;18.70;15.30
47576;DHT22;33304;52.456;13.328;2023-07-08T02:04:53;18.70;15.80
47576;DHT22;33304;52.456;13.328;2023-07-08T02:07:20;18.70;15.10
47576;DHT22;33304;52.456;13.328;2023-07-08T02:09:48;18.70;14.80
47576;DHT22;33304;52.456;13.328;2023-07-08T02:12:15;18.60;15.20
47576;DHT22;33304;52.456;13.328;2023-07-08T02:14:43;18.70;15.40
47576;DHT22;33304;52.456;13.328;2023-07-08T02:17:10;18.70;15.40
47576;DHT22;33304;52.456;13.328;2023-07-08T02:19:38;18.70;15.10
47576;DHT22;33304;52.456;13.328;2023-07-08T02:22:05;18.70;14.80
47576;DHT22;33304;52.456;13.328;2023-07-08T02:24:32;18.70;14.30
47576;DHT22;33304;52.456;13.328;2023-07-08T02:27:01;18.60;13.90
47576;DHT22;33304;52.456;13.328;2023-07-08T02:29:28;18.60;15.10
47576;DHT22;33304;52.456;13.328;2023-07-08T02:31:57;18.40;15.60
47576;DHT22;33304;52.456;13.328;2023-07-08T02:34:24;18.40;15.00
47576;DHT22;33304;52.456;13.328;2023-07-08T02:36:52;18.50;14.50
47576;DHT22;33304;52.456;13.328;2023-07-08T02:39:19;18.50;14.90
47576;DHT22;33304;52.456;13.328;2023-07-08T02:41:46;18.40;15.60
47576;DHT22;33304;52.456;13.328;2023-07-08T02:44:14;18.30;14.80
47576;DHT22;33304;52.456;13.328;2023-07-08T02:46:41;18.30;15.80
47576;DHT22;33304;52.456;13.328;2023-07-08T02:49:08;18.30;15.50
47576;DHT22;33304;52.456;13.328;2023-07-08T02:51:36;18.30;15.40
47576;DHT22;33304;52.456;13.328;2023-07-08T02:54:03;18.30;14.90
47576;DHT22;33304;52.456;13.328;2023-07-08T02:56:30;18.30;15.60
47576;DHT22;33304;52.456;13.328;2023-07-08T02:58:57;18.30;15.50
47576;DHT22;33304;52.456;13.328;2023-07-08T03:01:26;18.30;15.90
47576;DHT22;33304;52.456;13.328;2023-07-08T03:03:53;18.10;16.30
47576;DHT22;33304;52.456;13.328;2023-07-08T03:06:22;18.00;16.30
47576;DHT22;33304;52.456;13.328;2023-07-08T03:08:49;18.00;16.80
47576;DHT22;33304;52.456;13.328;2023-07-08T03:11:16;17.90;16.60
47576;DHT22;33304;52.456;13.328;2023-07-08T03:13:44;17.90;17.10
47576;DHT22;33304;52.456;13.328;2023-07-08T03:16:11;18.00;16.50
47576;DHT22;33304;52.456;13.328;2023-07-08T03:18:40;18.10;16.40
47576;DHT22;33304;52.456;13.328;2023-07-08T03:21:14;18.20;16.00
47576;DHT22;33304;52.456;13.328;2023-07-08T03:23:42;18.30;16.30
47576;DHT22;33304;52.456;13.328;2023-07-08T03:26:13;18.20;15.80
47576;DHT22;33304;52.456;13.328;2023-07-08T03:28:42;18.20;16.40
47576;DHT22;33304;52.456;13.328;2023-07-08T03:31:10;18.10;16.50
47576;DHT22;33304;52.456;13.328;2023-07-08T03:33:39;18.10;16.40
47576;DHT22;33304;52.456;13.328;2023-07-08T03:36:11;18.10;16.30
47576;DHT22;33304;52.456;13.328;2023-07-08T03:38:39;18.20;16.20
47576;DHT22;33304;52.456;13.328;2023-07-08T03:41:06;18.20;16.60
47576;DHT22;33304;52.456;13.328;2023-07-08T03:43:33;18.20;17.20
47576;DHT22;33304;52.456;13.328;2023-07-08T03:46:00;18.20;17.30
47576;DHT22;33304;52.456;13.328;2023-07-08T03:48:27;18.20;16.10
47576;DHT22;33304;52.456;13.328;2023-07-08T03:50:56;18.10;17.10
47576;DHT22;33304;52.456;13.328;2023-07-08T03:53:24;18.10;16.90
47576;DHT22;33304;52.456;13.328;2023-07-08T03:55:52;18.30;15.80
47576;DHT22;33304;52.456;13.328;2023-07-08T03:58:20;18.50;15.40
47576;DHT22;33304;52.456;13.328;2023-07-08T04:00:48;18.60;15.50
47576;DHT22;33304;52.456;13.328;2023-07-08T04:03:15;18.60;15.30
47576;DHT22;33304;52.456;13.328;2023-07-08T04:05:42;18.60;15.50
47576;DHT22;33304;52.456;13.328;2023-07-08T04:08:11;18.60;15.30
47576;DHT22;33304;52.456;13.328;2023-07-08T04:10:38;18.70;15.00
47576;DHT22;33304;52.456;13.328;2023-07-08T04:13:05;18.60;14.70
47576;DHT22;33304;52.456;13.328;2023-07-08T04:15:32;18.50;15.20
47576;DHT22;33304;52.456;13.328;2023-07-08T04:17:59;18.40;15.50
47576;DHT22;33304;52.456;13.328;2023-07-08T04:20:27;18.40;15.50
47576;DHT22;33304;52.456;13.328;2023-07-08T04:22:54;18.50;15.70
47576;DHT22;33304;52.456;13.328;2023-07-08T04:25:23;18.50;15.20
47576;DHT22;33304;52.456;13.328;2023-07-08T04:27:50;18.50;15.70
47576;DHT22;33304;52.456;13.328;2023-07-08T04:30:23;18.50;15.50
47576;DHT22;33304;52.456;13.328;2023-07-08T04:32:51;18.40;15.30
47576;DHT22;33304;52.456;13.328;2023-07-08T04:35:18;18.50;15.70
47576;DHT22;33304;52.456;13.328;2023-07-08T04:37:46;18.50;15.40
47576;DHT22;33304;52.456;13.328;2023-07-08T04:40:17;18.60;15.30
47576;DHT22;33304;52.456;13.328;2023-07-08T04:42:46;18.70;15.20
47576;DHT22;33304;52.456;13.328;2023-07-08T04:45:16;18.80;14.70
47576;DHT22;33304;52.456;13.328;2023-07-08T04:47:43;18.80;14.50
47576;DHT22;33304;52.456;13.328;2023-07-08T04:50:18;18.90;14.20
47576;DHT22;33304;52.456;13.328;2023-07-08T04:52:45;18.90;14.30
47576;DHT22;33304;52.456;13.328;2023-07-08T04:55:12;19.00;13.90
47576;DHT22;33304;52.456;13.328;2023-07-08T04:57:40;19.10;13.90
47576;DHT22;33304;52.456;13.328;2023-07-08T05:00:13;19.20;13.70
47576;DHT22;33304;52.456;13.328;2023-07-08T05:02:41;19.40;13.30
47576;DHT22;33304;52.456;13.328;2023-07-08T05:05:08;19.40;13.40
47576;DHT22;33304;52.456;13.328;2023-07-08T05:07:35;19.60;13.30
47576;DHT22;33304;52.456;13.328;2023-07-08T05:10:03;19.70;12.70
47576;DHT22;33304;52.456;13.328;2023-07-08T05:12:30;19.80;12.40
47576;DHT22;33304;52.456;13.328;2023-07-08T05:14:57;19.90;12.40
47576;DHT22;33304;52.456;13.328;2023-07-08T05:17:27;19.90;11.90
47576;DHT22;33304;52.456;13.328;2023-07-08T05:19:54;19.90;11.80
47576;DHT22;33304;52.456;13.328;2023-07-08T05:22:23;19.90;12.10
47576;DHT22;33304;52.456;13.328;2023-07-08T05:24:52;19.90;12.50
47576;DHT22;33304;52.456;13.328;2023-07-08T05:27:21;20.20;12.20
47576;DHT22;33304;52.456;13.328;2023-07-08T05:29:48;20.20;12.20
47576;DHT22;33304;52.456;13.328;2023-07-08T05:32:16;20.40;12.30
47576;DHT22;33304;52.456;13.328;2023-07-08T05:34:45;20.30;12.10
47576;DHT22;33304;52.456;13.328;2023-07-08T05:37:12;20.30;12.00
47576;DHT22;33304;52.456;13.328;2023-07-08T05:39:40;20.40;11.70
47576;DHT22;33304;52.456;13.328;2023-07-08T05:42:07;20.50;11.50
47576;DHT22;33304;52.456;13.328;2023-07-08T05:44:34;20.50;10.90
47576;DHT22;33304;52.456;13.328;2023-07-08T05:47:02;20.70;10.50
47576;DHT22;33304;52.456;13.328;2023-07-08T05:49:29;21.00;10.00
47576;DHT22;33304;52.456;13.328;2023-07-08T05:51:58;21.00;10.50
47576;DHT22;33304;52.456;13.328;2023-07-08T05:54:31;21.00;10.00
47576;DHT22;33304;52.456;13.328;2023-07-08T05:56:58;21.00;10.00
47576;DHT22;33304;52.456;13.328;2023-07-08T05:59:25;21.20;10.20
47576;DHT22;33304;52.456;13.328;2023-07-08T06:01:52;21.50;9.10
47576;DHT22;33304;52.456;13.328;2023-07-08T06:04:19;21.50;8.30
47576;DHT22;33304;52.456;13.328;2023-07-08T06:06:48;21.60;8.80
47576;DHT22;33304;52.456;13.328;2023-07-08T06:09:16;21.70;8.60
47576;DHT22;33304;52.456;13.328;2023-07-08T06:11:43;21.90;8.60
47576;DHT22;33304;52.456;13.328;2023-07-08T06:14:10;22.10;8.50
47576;DHT22;33304;52.456;13.328;2023-07-08T06:16:38;22.10;8.50
47576;DHT22;33304;52.456;13.328;2023-07-08T06:19:05;22.30;8.50
47576;DHT22;33304;52.456;13.328;2023-07-08T06:21:33;22.50;7.10
47576;DHT22;33304;52.456;13.328;2023-07-08T06:24:00;22.70;7.70
47576;DHT22;33304;52.456;13.328;2023-07-08T06:26:28;22.60;8.10
47576;DHT22;33304;52.456;13.328;2023-07-08T06:28:55;22.50;7.00
47576;DHT22;33304;52.456;13.328;2023-07-08T06:31:22;22.60;7.50
47576;DHT22;33304;52.456;13.328;2023-07-08T06:33:50;22.70;7.00
47576;DHT22;33304;52.456;13.328;2023-07-08T06:36:17;22.90;7.20
47576;DHT22;33304;52.456;13.328;2023-07-08T06:38:44;23.20;6.50
47576;DHT22;33304;52.456;13.328;2023-07-08T06:41:11;23.30;5.40
47576;DHT22;33304;52.456;13.328;2023-07-08T06:43:39;23.50;4.80
47576;DHT22;33304;52.456;13.328;2023-07-08T06:46:21;23.60;5.60
47576;DHT22;33304;52.456;13.328;2023-07-08T06:48:49;23.80;6.00
47576;DHT22;33304;52.456;13.328;2023-07-08T06:51:16;23.80;5.30
47576;DHT22;33304;52.456;13.328;2023-07-08T06:53:43;23.90;5.20
47576;DHT22;33304;52.456;13.328;2023-07-08T06:56:10;24.20;3.50
47576;DHT22;33304;52.456;13.328;2023-07-08T06:58:38;24.40;4.30
47576;DHT22;33304;52.456;13.328;2023-07-08T07:01:06;24.70;2.60
47576;DHT22;33304;52.456;13.328;2023-07-08T07:03:33;25.00;2.80
47576;DHT22;33304;52.456;13.328;2023-07-08T07:06:00;25.30;2.00
47576;DHT22;33304;52.456;13.328;2023-07-08T07:08:27;25.50;1.60
47576;DHT22;33304;52.456;13.328;2023-07-08T07:10:54;25.70;1.00
47576;DHT22;33304;52.456;13.328;2023-07-08T07:13:21;25.80;1.60
47576;DHT22;33304;52.456;13.328;2023-07-08T07:15:50;25.80;1.00
47576;DHT22;33304;52.456;13.328;2023-07-08T07:18:17;25.90;1.00
47576;DHT22;33304;52.456;13.328;2023-07-08T07:20:49;26.00;1.00
47576;DHT22;33304;52.456;13.328;2023-07-08T07:23:16;26.10;1.00
47576;DHT22;33304;52.456;13.328;2023-07-08T07:25:43;26.10;1.00
47576;DHT22;33304;52.456;13.328;2023-07-08T07:28:13;26.00;1.00
47576;DHT22;33304;52.456;13.328;2023-07-08T07:30:40;26.00;1.00
47576;DHT22;33304;52.456;13.328;2023-07-08T07:33:08;25.90;1.00
47576;DHT22;33304;52.456;13.328;2023-07-08T07:35:36;26.00;1.00
47576;DHT22;33304;52.456;13.328;2023-07-08T07:38:03;26.00;1.00
47576;DHT22;33304;52.456;13.328;2023-07-08T07:40:30;26.10;1.00
47576;DHT22;33304;52.456;13.328;2023-07-08T07:42:57;25.90;1.00
47576;DHT22;33304;52.456;13.328;2023-07-08T07:45:24;25.80;1.30
47576;DHT22;33304;52.456;13.328;2023-07-08T07:47:51;25.80;2.50
47576;DHT22;33304;52.456;13.328;2023-07-08T07:50:19;25.80;1.50
47576;DHT22;33304;52.456;13.328;2023-07-08T07:52:46;25.90;2.90
47576;DHT22;33304;52.456;13.328;2023-07-08T07:55:14;26.00;1.00
47576;DHT22;33304;52.456;13.328;2023-07-08T07:57:41;26.00;1.50
47576;DHT22;33304;52.456;13.328;2023-07-08T08:00:12;26.00;1.00
47576;DHT22;33304;52.456;13.328;2023-07-08T08:02:40;26.10;1.00
47576;DHT22;33304;52.456;13.328;2023-07-08T08:05:07;26.00;1.30
47576;DHT22;33304;52.456;13.328;2023-07-08T08:07:36;26.10;1.00
47576;DHT22;33304;52.456;13.328;2023-07-08T08:10:03;26.10;1.00
47576;DHT22;33304;52.456;13.328;2023-07-08T08:12:30;26.10;1.00
47576;DHT22;33304;52.456;13.328;2023-07-08T08:14:57;26.20;1.00
47576;DHT22;33304;52.456;13.328;2023-07-08T08:17:25;26.10;1.00
47576;DHT22;33304;52.456;13.328;2023-07-08T08:19:52;26.20;1.00
47576;DHT22;33304;52.456;13.328;2023-07-08T08:22:19;26.20;1.00
47576;DHT22;33304;52.456;13.328;2023-07-08T08:24:49;26.20;1.00
47576;DHT22;33304;52.456;13.328;2023-07-08T08:27:16;26.30;1.00
47576;DHT22;33304;52.456;13.328;2023-07-08T08:29:43;26.20;1.00
47576;DHT22;33304;52.456;13.328;2023-07-08T08:32:10;26.40;1.00
47576;DHT22;33304;52.456;13.328;2023-07-08T08:34:37;26.50;1.00
47576;DHT22;33304;52.456;13.328;2023-07-08T08:37:05;26.60;1.00
47576;DHT22;33304;52.456;13.328;2023-07-08T08:39:32;26.70;1.00
47576;DHT22;33304;52.456;13.328;2023-07-08T08:42:00;26.80;1.00
47576;DHT22;33304;52.456;13.328;2023-07-08T08:44:31;26.70;1.00
47576;DHT22;33304;52.456;13.328;2023-07-08T08:47:06;26.90;1.00
47576;DHT22;33304;52.456;13.328;2023-07-08T08:49:43;26.90;1.00
47576;DHT22;33304;52.456;13.328;2023-07-08T08:52:11;27.10;1.00
47576;DHT22;33304;52.456;13.328;2023-07-08T08:54:38;27.20;1.00
47576;DHT22;33304;52.456;13.328;2023-07-08T08:57:14;27.30;1.00
47576;DHT22;33304;52.456;13.328;2023-07-08T08:59:49;27.20;1.00
47576;DHT22;33304;52.456;13.328;2023-07-08T09:02:27;27.30;1.00
47576;DHT22;33304;52.456;13.328;2023-07-08T09:05:00;27.40;1.00
47576;DHT22;33304;52.456;13.328;2023-07-08T09:07:29;27.30;1.00
47576;DHT22;33304;52.456;13.328;2023-07-08T09:10:02;27.30;1.00
47576;DHT22;33304;52.456;13.328;2023-07-08T09:12:32;27.40;1.00
47576;DHT22;33304;52.456;13.328;2023-07-08T09:15:03;27.60;1.00
47576;DHT22;33304;52.456;13.328;2023-07-08T09:17:37;27.70;1.00
47576;DHT22;33304;52.456;13.328;2023-07-08T09:20:12;27.70;1.00
47576;DHT22;33304;52.456;13.328;2023-07-08T09:22:46;27.80;1.00
47576;DHT22;33304;52.456;13.328;2023-07-08T09:25:24;27.90;1.00
47576;DHT22;33304;52.456;13.328;2023-07-08T09:27:52;28.00;1.00
47576;DHT22;33304;52.456;13.328;2023-07-08T09:30:21;28.10;1.00
47576;DHT22;33304;52.456;13.328;2023-07-08T09:32:49;28.10;1.00
47576;DHT22;33304;52.456;13.328;2023-07-08T09:35:19;28.00;1.00
47576;DHT22;33304;52.456;13.328;2023-07-08T09:37:47;28.00;1.00
47576;DHT22;33304;52.456;13.328;2023-07-08T09:40:17;27.90;1.00
47576;DHT22;33304;52.456;13.328;2023-07-08T09:42:48;27.90;1.00
47576;DHT22;33304;52.456;13.328;2023-07-08T09:45:20;28.00;1.00
47576;DHT22;33304;52.456;13.328;2023-07-08T09:47:51;28.00;1.00
47576;DHT22;33304;52.456;13.328;2023-07-08T09:50:21;28.10;1.00
47576;DHT22;33304;52.456;13.328;2023-07-08T09:52:51;28.20;1.00
47576;DHT22;33304;52.456;13.328;2023-07-08T09:55:20;28.30;1.00
47576;DHT22;33304;52.456;13.328;2023-07-08T09:57:48;28.30;1.00
47576;DHT22;33304;52.456;13.328;2023-07-08T10:00:25;28.30;1.00
47576;DHT22;33304;52.456;13.328;2023-07-08T10:02:55;28.40;1.00
47576;DHT22;33304;52.456;13.328;2023-07-08T10:05:24;28.60;1.00
47576;DHT22;33304;52.456;13.328;2023-07-08T10:07:55;28.60;1.00
47576;DHT22;33304;52.456;13.328;2023-07-08T10:10:26;28.70;1.00
47576;DHT22;33304;52.456;13.328;2023-07-08T10:12:58;28.50;1.00
47576;DHT22;33304;52.456;13.328;2023-07-08T10:15:32;28.60;1.00
47576;DHT22;33304;52.456;13.328;2023-07-08T10:18:00;28.40;1.00
47576;DHT22;33304;52.456;13.328;2023-07-08T10:20:36;28.40;1.00
47576;DHT22;33304;52.456;13.328;2023-07-08T10:23:16;28.50;1.00
47576;DHT22;33304;52.456;13.328;2023-07-08T10:25:50;28.70;1.00
47576;DHT22;33304;52.456;13.328;2023-07-08T10:28:28;28.80;1.00
47576;DHT22;33304;52.456;13.328;2023-07-08T10:31:09;28.80;1.00
47576;DHT22;33304;52.456;13.328;2023-07-08T10:36:42;28.80;1.00
47576;DHT22;33304;52.456;13.328;2023-07-08T10:39:37;28.90;1.00
47576;DHT22;33304;52.456;13.328;2023-07-08T10:42:32;28.80;1.00
47576;DHT22;33304;52.456;13.328;2023-07-08T10:45:07;28.90;1.00
47576;DHT22;33304;52.456;13.328;2023-07-08T10:47:45;29.00;1.00
47576;DHT22;33304;52.456;13.328;2023-07-08T10:50:30;29.10;1.00
47576;DHT22;33304;52.456;13.328;2023-07-08T10:53:09;29.00;1.00
47576;DHT22;33304;52.456;13.328;2023-07-08T10:55:47;29.00;1.00
47576;DHT22;33304;52.456;13.328;2023-07-08T10:58:37;28.90;1.00
47576;DHT22;33304;52.456;13.328;2023-07-08T11:01:11;29.20;1.00
47576;DHT22;33304;52.456;13.328;2023-07-08T11:03:56;29.50;1.00
47576;DHT22;33304;52.456;13.328;2023-07-08T11:06:33;29.60;1.00
47576;DHT22;33304;52.456;13.328;2023-07-08T11:09:02;29.70;1.00
47576;DHT22;33304;52.456;13.328;2023-07-08T11:11:34;29.70;1.00
47576;DHT22;33304;52.456;13.328;2023-07-08T11:14:10;29.70;1.00
47576;DHT22;33304;52.456;13.328;2023-07-08T11:16:43;29.80;1.00
47576;DHT22;33304;52.456;13.328;2023-07-08T11:19:17;29.60;1.00
47576;DHT22;33304;52.456;13.328;2023-07-08T11:21:47;29.80;1.00
47576;DHT22;33304;52.456;13.328;2023-07-08T11:24:22;30.00;1.00
47576;DHT22;33304;52.456;13.328;2023-07-08T11:26:55;30.00;1.00
47576;DHT22;33304;52.456;13.328;2023-07-08T11:29:30;30.00;1.00
47576;DHT22;33304;52.456;13.328;2023-07-08T11:32:00;29.90;1.00
47576;DHT22;33304;52.456;13.328;2023-07-08T11:34:30;30.00;1.00
47576;DHT22;33304;52.456;13.328;2023-07-08T11:36:59;30.00;1.00
47576;DHT22;33304;52.456;13.328;2023-07-08T11:39:31;29.80;1.00
47576;DHT22;33304;52.456;13.328;2023-07-08T11:42:16;30.10;1.00
47576;DHT22;33304;52.456;13.328;2023-07-08T11:44:46;30.20;1.00
47576;DHT22;33304;52.456;13.328;2023-07-08T11:47:22;30.30;1.00
47576;DHT22;33304;52.456;13.328;2023-07-08T11:49:52;30.50;1.00
47576;DHT22;33304;52.456;13.328;2023-07-08T11:52:22;30.50;1.00
47576;DHT22;33304;52.456;13.328;2023-07-08T11:54:56;30.60;1.00
47576;DHT22;33304;52.456;13.328;2023-07-08T11:57:28;30.60;1.00
47576;DHT22;33304;52.456;13.328;2023-07-08T12:00:14;30.90;1.00
47576;DHT22;33304;52.456;13.328;2023-07-08T12:02:54;31.10;1.00
47576;DHT22;33304;52.456;13.328;2023-07-08T12:05:33;31.20;1.00
47576;DHT22;33304;52.456;13.328;2023-07-08T12:08:02;31.10;1.00
47576;DHT22;33304;52.456;13.328;2023-07-08T12:10:34;31.20;1.00
47576;DHT22;33304;52.456;13.328;2023-07-08T12:13:02;31.10;1.00
47576;DHT22;33304;52.456;13.328;2023-07-08T12:15:31;31.10;1.00
47576;DHT22;33304;52.456;13.328;2023-07-08T12:18:02;31.20;1.00
47576;DHT22;33304;52.456;13.328;2023-07-08T12:20:34;31.30;1.00
47576;DHT22;33304;52.456;13.328;2023-07-08T12:23:02;31.20;1.00
47576;DHT22;33304;52.456;13.328;2023-07-08T12:25:31;31.10;1.00
47576;DHT22;33304;52.456;13.328;2023-07-08T12:28:01;31.30;1.00
47576;DHT22;33304;52.456;13.328;2023-07-08T12:30:30;31.70;1.00
47576;DHT22;33304;52.456;13.328;2023-07-08T12:32:58;32.20;1.00
47576;DHT22;33304;52.456;13.328;2023-07-08T12:35:29;32.30;1.00
47576;DHT22;33304;52.456;13.328;2023-07-08T12:38:01;32.60;1.00
47576;DHT22;33304;52.456;13.328;2023-07-08T12:40:29;33.20;1.00
47576;DHT22;33304;52.456;13.328;2023-07-08T12:42:58;33.40;1.00
47576;DHT22;33304;52.456;13.328;2023-07-08T12:45:28;34.30;1.00
47576;DHT22;33304;52.456;13.328;2023-07-08T12:47:57;35.40;1.00
47576;DHT22;33304;52.456;13.328;2023-07-08T12:50:24;36.10;1.00
47576;DHT22;33304;52.456;13.328;2023-07-08T12:52:51;36.70;1.00
47576;DHT22;33304;52.456;13.328;2023-07-08T12:55:19;37.40;1.00
47576;DHT22;33304;52.456;13.328;2023-07-08T12:57:49;37.60;1.00
47576;DHT22;33304;52.456;13.328;2023-07-08T13:00:24;37.90;1.00
47576;DHT22;33304;52.456;13.328;2023-07-08T13:02:56;38.30;1.00
47576;DHT22;33304;52.456;13.328;2023-07-08T13:05:26;38.50;1.00
47576;DHT22;33304;52.456;13.328;2023-07-08T13:07:53;39.10;1.00
47576;DHT22;33304;52.456;13.328;2023-07-08T13:10:26;38.90;1.00
47576;DHT22;33304;52.456;13.328;2023-07-08T13:12:58;38.20;1.00
47576;DHT22;33304;52.456;13.328;2023-07-08T13:15:28;38.50;1.00
47576;DHT22;33304;52.456;13.328;2023-07-08T13:17:57;39.00;1.00
47576;DHT22;33304;52.456;13.328;2023-07-08T13:20:24;39.50;1.00
47576;DHT22;33304;52.456;13.328;2023-07-08T13:22:54;38.90;1.00
47576;DHT22;33304;52.456;13.328;2023-07-08T13:25:29;39.20;1.00
47576;DHT22;33304;52.456;13.328;2023-07-08T13:27:58;39.00;1.00
47576;DHT22;33304;52.456;13.328;2023-07-08T13:30:28;39.60;1.00
47576;DHT22;33304;52.456;13.328;2023-07-08T13:32:57;39.90;1.00
47576;DHT22;33304;52.456;13.328;2023-07-08T13:35:27;39.70;1.00
47576;DHT22;33304;52.456;13.328;2023-07-08T13:37:56;38.10;1.00
47576;DHT22;33304;52.456;13.328;2023-07-08T13:40:28;38.00;1.00
47576;DHT22;33304;52.456;13.328;2023-07-08T13:42:56;39.00;1.00
47576;DHT22;33304;52.456;13.328;2023-07-08T13:45:25;39.60;1.00
47576;DHT22;33304;52.456;13.328;2023-07-08T13:48:12;40.00;1.00
47576;DHT22;33304;52.456;13.328;2023-07-08T13:50:46;40.50;1.00
47576;DHT22;33304;52.456;13.328;2023-07-08T13:53:21;40.40;1.00
47576;DHT22;33304;52.456;13.328;2023-07-08T13:55:57;40.60;1.00
47576;DHT22;33304;52.456;13.328;2023-07-08T13:58:28;40.70;1.00
47576;DHT22;33304;52.456;13.328;2023-07-08T14:00:56;40.10;1.00
47576;DHT22;33304;52.456;13.328;2023-07-08T14:03:23;40.30;1.00
47576;DHT22;33304;52.456;13.328;2023-07-08T14:05:50;40.40;1.00
47576;DHT22;33304;52.456;13.328;2023-07-08T14:08:17;40.50;1.00
47576;DHT22;33304;52.456;13.328;2023-07-08T14:10:45;40.50;1.00
47576;DHT22;33304;52.456;13.328;2023-07-08T14:13:13;41.30;1.00
47576;DHT22;33304;52.456;13.328;2023-07-08T14:15:41;41.30;1.00
47576;DHT22;33304;52.456;13.328;2023-07-08T14:18:10;41.90;1.00
47576;DHT22;33304;52.456;13.328;2023-07-08T14:20:37;42.20;1.00
47576;DHT22;33304;52.456;13.328;2023-07-08T14:23:04;42.30;1.00
47576;DHT22;33304;52.456;13.328;2023-07-08T14:25:32;41.60;1.00
47576;DHT22;33304;52.456;13.328;2023-07-08T14:27:59;41.50;1.00
47576;DHT22;33304;52.456;13.328;2023-07-08T14:30:27;41.50;1.00
47576;DHT22;33304;52.456;13.328;2023-07-08T14:32:54;42.10;1.00
47576;DHT22;33304;52.456;13.328;2023-07-08T14:35:24;41.90;1.00
47576;DHT22;33304;52.456;13.328;2023-07-08T14:37:52;42.20;1.00
47576;DHT22;33304;52.456;13.328;2023-07-08T14:40:25;42.10;1.00
47576;DHT22;33304;52.456;13.328;2023-07-08T14:42:57;42.50;1.00
47576;DHT22;33304;52.456;13.328;2023-07-08T14:45:28;42.40;1.00
47576;DHT22;33304;52.456;13.328;2023-07-08T14:47:56;42.20;1.00
47576;DHT22;33304;52.456;13.328;2023-07-08T14:50:23;42.00;1.00
47576;DHT22;33304;52.456;13.328;2023-07-08T14:52:55;41.60;1.00
47576;DHT22;33304;52.456;13.328;2023-07-08T14:55:22;41.00;1.00
47576;DHT22;33304;52.456;13.328;2023-07-08T14:57:50;41.70;1.00
47576;DHT22;33304;52.456;13.328;2023-07-08T15:00:18;41.90;1.00
47576;DHT22;33304;52.456;13.328;2023-07-08T15:02:49;41.40;1.00
47576;DHT22;33304;52.456;13.328;2023-07-08T15:05:18;41.80;1.00
47576;DHT22;33304;52.456;13.328;2023-07-08T15:07:49;42.10;1.00
47576;DHT22;33304;52.456;13.328;2023-07-08T15:10:16;41.10;1.00
47576;DHT22;33304;52.456;13.328;2023-07-08T15:12:43;41.40;1.00
47576;DHT22;33304;52.456;13.328;2023-07-08T15:15:15;41.60;1.00
47576;DHT22;33304;52.456;13.328;2023-07-08T15:17:43;42.00;1.00
47576;DHT22;33304;52.456;13.328;2023-07-08T15:20:14;41.80;1.00
47576;DHT22;33304;52.456;13.328;2023-07-08T15:22:42;42.00;1.00
47576;DHT22;33304;52.456;13.328;2023-07-08T15:25:11;42.00;1.00
47576;DHT22;33304;52.456;13.328;2023-07-08T15:27:39;42.10;1.00
47576;DHT22;33304;52.456;13.328;2023-07-08T15:30:15;41.70;1.00
47576;DHT22;33304;52.456;13.328;2023-07-08T15:32:44;41.50;1.00
47576;DHT22;33304;52.456;13.328;2023-07-08T15:35:14;41.40;1.00
47576;DHT22;33304;52.456;13.328;2023-07-08T15:37:42;41.80;1.00
47576;DHT22;33304;52.456;13.328;2023-07-08T15:40:13;42.40;1.00
47576;DHT22;33304;52.456;13.328;2023-07-08T15:42:41;41.70;1.00
47576;DHT22;33304;52.456;13.328;2023-07-08T15:45:13;41.50;1.00